DLH2447 KORD-KDEN
Flight info
| Callsign | DLH2447 |
|---|---|
| Flight time | N/A |
| Altitude | 40000 |
| Route | OLINN OREOS OBENE OGALE BRWRY LAWGR4 |
| Aircraft | A359/H-SDE2E3GHIJ3J4J5LM1ORWXY/LB1D1 |
Departure
| Time | 2026-05-04 17:27 |
|---|---|
| Airport | Chicago O'Hare International Airport (KORD) |
Arrival
| Time | N/A |
|---|---|
| Airport | Denver International Airport (KDEN) |
| Time | Latitude | Longitude | Altitude | Speed | Heading |
|---|---|---|---|---|---|
| 2026-05-04 16:46 | 41.97793 | -87.90765 | 675 ft | 0 kts | 115° |
| 2026-05-04 17:10 | 41.97796 | -87.90776 | 675 ft | 2 kts | 115° |
| 2026-05-04 17:10 | 41.97813 | -87.90800 | 673 ft | 3 kts | 168° |
| 2026-05-04 17:11 | 41.97832 | -87.90801 | 673 ft | 3 kts | 207° |
| 2026-05-04 17:11 | 41.97840 | -87.90794 | 673 ft | 0 kts | 229° |
| 2026-05-04 17:11 | 41.97802 | -87.90841 | 673 ft | 9 kts | 195° |
| 2026-05-04 17:12 | 41.97767 | -87.90849 | 675 ft | 0 kts | 188° |
| 2026-05-04 17:20 | 41.97552 | -87.90945 | 674 ft | 11 kts | 249° |
| 2026-05-04 17:20 | 41.97386 | -87.91064 | 673 ft | 17 kts | 155° |
| 2026-05-04 17:20 | 41.97277 | -87.91024 | 676 ft | 17 kts | 194° |
| 2026-05-04 17:21 | 41.97112 | -87.90924 | 672 ft | 20 kts | 139° |
| 2026-05-04 17:21 | 41.97041 | -87.90693 | 672 ft | 16 kts | 89° |
| 2026-05-04 17:22 | 41.97042 | -87.90530 | 671 ft | 19 kts | 89° |
| 2026-05-04 17:22 | 41.97043 | -87.90339 | 671 ft | 22 kts | 89° |
| 2026-05-04 17:23 | 41.97042 | -87.89689 | 676 ft | 26 kts | 90° |
| 2026-05-04 17:23 | 41.97041 | -87.89433 | 673 ft | 29 kts | 90° |
| 2026-05-04 17:23 | 41.97045 | -87.88825 | 663 ft | 35 kts | 90° |
| 2026-05-04 17:24 | 41.97045 | -87.88532 | 664 ft | 29 kts | 90° |
| 2026-05-04 17:24 | 41.97044 | -87.88132 | 669 ft | 0 kts | 92° |
| 2026-05-04 17:25 | 41.97008 | -87.88029 | 671 ft | 17 kts | 139° |
| 2026-05-04 17:25 | 41.96933 | -87.88048 | 672 ft | 0 kts | 223° |
| 2026-05-04 17:26 | 41.96243 | -87.88862 | 673 ft | 135 kts | 221° |
| 2026-05-04 17:27 | 41.95033 | -87.90708 | 1401 ft | 183 kts | 243° |
| 2026-05-04 17:27 | 41.94325 | -87.95333 | 2845 ft | 241 kts | 260° |
| 2026-05-04 17:28 | 41.94020 | -87.99777 | 4839 ft | 239 kts | 265° |
| 2026-05-04 17:29 | 41.93828 | -88.05822 | 7366 ft | 245 kts | 267° |
| 2026-05-04 17:29 | 41.93636 | -88.12814 | 10265 ft | 255 kts | 266° |
| 2026-05-04 17:30 | 41.93387 | -88.20746 | 11932 ft | 306 kts | 266° |
| 2026-05-04 17:31 | 41.93204 | -88.26516 | 13619 ft | 317 kts | 266° |
| 2026-05-04 17:31 | 41.92909 | -88.35646 | 15882 ft | 332 kts | 266° |
| 2026-05-04 17:32 | 41.92701 | -88.41902 | 17401 ft | 341 kts | 267° |
| 2026-05-04 17:33 | 41.92370 | -88.51657 | 19498 ft | 355 kts | 267° |
| 2026-05-04 17:33 | 41.92256 | -88.54979 | 20230 ft | 358 kts | 267° |
| 2026-05-04 17:34 | 41.91900 | -88.65150 | 22421 ft | 369 kts | 267° |
| 2026-05-04 17:34 | 41.91777 | -88.68601 | 23120 ft | 373 kts | 267° |
| 2026-05-04 17:35 | 41.91393 | -88.79199 | 24892 ft | 384 kts | 268° |
| 2026-05-04 17:35 | 41.91143 | -88.86432 | 26030 ft | 392 kts | 268° |
| 2026-05-04 17:35 | 41.91029 | -88.90104 | 26619 ft | 395 kts | 269° |
| 2026-05-04 17:36 | 41.90916 | -88.93802 | 27193 ft | 398 kts | 269° |
| 2026-05-04 17:36 | 41.90800 | -88.97536 | 27744 ft | 402 kts | 269° |
| 2026-05-04 17:36 | 41.90682 | -89.01300 | 28303 ft | 406 kts | 269° |
| 2026-05-04 17:36 | 41.90559 | -89.05099 | 28846 ft | 409 kts | 269° |
| 2026-05-04 17:37 | 41.90433 | -89.08928 | 29350 ft | 413 kts | 269° |
| 2026-05-04 17:37 | 41.90304 | -89.12788 | 29845 ft | 416 kts | 269° |
| 2026-05-04 17:37 | 41.90172 | -89.16684 | 30276 ft | 419 kts | 269° |
| 2026-05-04 17:37 | 41.90039 | -89.20592 | 30731 ft | 422 kts | 269° |
| 2026-05-04 17:38 | 41.89856 | -89.24542 | 31156 ft | 425 kts | 266° |
| 2026-05-04 17:38 | 41.89514 | -89.28489 | 31577 ft | 428 kts | 264° |
| 2026-05-04 17:38 | 41.89087 | -89.32456 | 31986 ft | 431 kts | 263° |
| 2026-05-04 17:38 | 41.88643 | -89.36385 | 32370 ft | 433 kts | 263° |
| 2026-05-04 17:39 | 41.87766 | -89.44439 | 33110 ft | 438 kts | 263° |
| 2026-05-04 17:39 | 41.87349 | -89.48497 | 33466 ft | 441 kts | 263° |
| 2026-05-04 17:39 | 41.86939 | -89.52583 | 33783 ft | 443 kts | 263° |
| 2026-05-04 17:40 | 41.86533 | -89.56685 | 34063 ft | 444 kts | 264° |
| 2026-05-04 17:40 | 41.86129 | -89.60783 | 34499 ft | 443 kts | 264° |
| 2026-05-04 17:40 | 41.85726 | -89.64860 | 34936 ft | 441 kts | 264° |
| 2026-05-04 17:40 | 41.85321 | -89.68929 | 35337 ft | 439 kts | 264° |
| 2026-05-04 17:41 | 41.84916 | -89.72990 | 35722 ft | 438 kts | 264° |
| 2026-05-04 17:41 | 41.84511 | -89.77031 | 36077 ft | 438 kts | 264° |
| 2026-05-04 17:41 | 41.84096 | -89.81082 | 36439 ft | 437 kts | 264° |
| 2026-05-04 17:41 | 41.83679 | -89.85106 | 36805 ft | 436 kts | 264° |
| 2026-05-04 17:42 | 41.83261 | -89.89121 | 37172 ft | 435 kts | 264° |
| 2026-05-04 17:42 | 41.82843 | -89.93128 | 37536 ft | 434 kts | 264° |
| 2026-05-04 17:42 | 41.82425 | -89.97130 | 37882 ft | 433 kts | 264° |
| 2026-05-04 17:42 | 41.82007 | -90.01128 | 38226 ft | 431 kts | 264° |
| 2026-05-04 17:43 | 41.81590 | -90.05099 | 38530 ft | 430 kts | 264° |
| 2026-05-04 17:43 | 41.81173 | -90.09065 | 38734 ft | 430 kts | 264° |
| 2026-05-04 17:43 | 41.80754 | -90.13042 | 38914 ft | 431 kts | 264° |
| 2026-05-04 17:43 | 41.80333 | -90.17026 | 39092 ft | 432 kts | 264° |
| 2026-05-04 17:44 | 41.79910 | -90.21014 | 39285 ft | 432 kts | 264° |
| 2026-05-04 17:44 | 41.79485 | -90.25003 | 39464 ft | 433 kts | 264° |
| 2026-05-04 17:44 | 41.79059 | -90.28998 | 39627 ft | 434 kts | 264° |
| 2026-05-04 17:44 | 41.78627 | -90.33021 | 39644 ft | 436 kts | 264° |
| 2026-05-04 17:45 | 41.77760 | -90.41064 | 39645 ft | 436 kts | 264° |
| 2026-05-04 17:45 | 41.76888 | -90.49098 | 39637 ft | 436 kts | 264° |
| 2026-05-04 17:46 | 41.76009 | -90.57143 | 39640 ft | 437 kts | 263° |
| 2026-05-04 17:46 | 41.75122 | -90.65201 | 39645 ft | 437 kts | 263° |
| 2026-05-04 17:47 | 41.74233 | -90.73232 | 39639 ft | 437 kts | 263° |
| 2026-05-04 17:47 | 41.73335 | -90.81288 | 39641 ft | 437 kts | 263° |
| 2026-05-04 17:48 | 41.72434 | -90.89319 | 39633 ft | 436 kts | 263° |
| 2026-05-04 17:48 | 41.71527 | -90.97349 | 39634 ft | 436 kts | 263° |
| 2026-05-04 17:49 | 41.70616 | -91.05367 | 39633 ft | 436 kts | 263° |
| 2026-05-04 17:49 | 41.69699 | -91.13391 | 39638 ft | 436 kts | 263° |
| 2026-05-04 17:50 | 41.68777 | -91.21400 | 39644 ft | 436 kts | 263° |
| 2026-05-04 17:50 | 41.67850 | -91.29407 | 39648 ft | 436 kts | 263° |
| 2026-05-04 17:51 | 41.66917 | -91.37411 | 39651 ft | 436 kts | 263° |
| 2026-05-04 17:51 | 41.65978 | -91.45414 | 39658 ft | 435 kts | 263° |
| 2026-05-04 17:52 | 41.65035 | -91.53409 | 39650 ft | 436 kts | 263° |
| 2026-05-04 17:52 | 41.64086 | -91.61402 | 39653 ft | 435 kts | 263° |
| 2026-05-04 17:53 | 41.63130 | -91.69403 | 39656 ft | 435 kts | 263° |
| 2026-05-04 17:53 | 41.62169 | -91.77397 | 39650 ft | 435 kts | 263° |
| 2026-05-04 17:54 | 41.61205 | -91.85373 | 39643 ft | 435 kts | 263° |
| 2026-05-04 17:54 | 41.60233 | -91.93365 | 39628 ft | 435 kts | 263° |
| 2026-05-04 17:55 | 41.59256 | -92.01346 | 39632 ft | 435 kts | 263° |
| 2026-05-04 17:55 | 41.58276 | -92.09306 | 39636 ft | 435 kts | 263° |
| 2026-05-04 17:56 | 41.57288 | -92.17282 | 39631 ft | 435 kts | 263° |
| 2026-05-04 17:56 | 41.56297 | -92.25240 | 39625 ft | 435 kts | 263° |
| 2026-05-04 17:57 | 41.55296 | -92.33229 | 39645 ft | 435 kts | 263° |
| 2026-05-04 17:57 | 41.54293 | -92.41183 | 39637 ft | 435 kts | 263° |
| 2026-05-04 17:58 | 41.53287 | -92.49128 | 39634 ft | 435 kts | 263° |
| 2026-05-04 17:58 | 41.52271 | -92.57102 | 39643 ft | 435 kts | 262° |
| 2026-05-04 17:59 | 41.51257 | -92.65010 | 39645 ft | 436 kts | 262° |
| 2026-05-04 18:00 | 41.49715 | -92.76950 | 39644 ft | 435 kts | 263° |
| 2026-05-04 18:00 | 41.48681 | -92.84901 | 39633 ft | 435 kts | 262° |
| 2026-05-04 18:01 | 41.47636 | -92.92894 | 39656 ft | 435 kts | 262° |
| 2026-05-04 18:01 | 41.46599 | -93.00780 | 39656 ft | 435 kts | 262° |
| 2026-05-04 18:02 | 41.45022 | -93.12690 | 39651 ft | 434 kts | 263° |
| 2026-05-04 18:02 | 41.43967 | -93.20605 | 39642 ft | 434 kts | 262° |
| 2026-05-04 18:03 | 41.42906 | -93.28522 | 39642 ft | 434 kts | 262° |
| 2026-05-04 18:03 | 41.41840 | -93.36430 | 39639 ft | 434 kts | 262° |
| 2026-05-04 18:04 | 41.40768 | -93.44344 | 39636 ft | 434 kts | 262° |
| 2026-05-04 18:05 | 41.39822 | -93.56276 | 39632 ft | 432 kts | 268° |
| 2026-05-04 18:05 | 41.39371 | -93.64261 | 39629 ft | 432 kts | 268° |
| 2026-05-04 18:06 | 41.38696 | -93.76224 | 39635 ft | 432 kts | 268° |
| 2026-05-04 18:06 | 41.38242 | -93.84189 | 39628 ft | 432 kts | 268° |
| 2026-05-04 18:07 | 41.37782 | -93.92149 | 39636 ft | 431 kts | 268° |
| 2026-05-04 18:07 | 41.37318 | -94.00102 | 39634 ft | 431 kts | 268° |
| 2026-05-04 18:08 | 41.36848 | -94.08062 | 39632 ft | 431 kts | 268° |
| 2026-05-04 18:08 | 41.36373 | -94.16009 | 39632 ft | 431 kts | 268° |
| 2026-05-04 18:09 | 41.35413 | -94.31806 | 39642 ft | 430 kts | 268° |
| 2026-05-04 18:10 | 41.34923 | -94.39731 | 39646 ft | 430 kts | 268° |
| 2026-05-04 18:10 | 41.34507 | -94.46384 | 39648 ft | 430 kts | 267° |
| 2026-05-04 18:11 | 41.34007 | -94.54313 | 39645 ft | 430 kts | 267° |
| 2026-05-04 18:11 | 41.33500 | -94.62252 | 39648 ft | 430 kts | 267° |
| 2026-05-04 18:12 | 41.32989 | -94.70161 | 39656 ft | 429 kts | 267° |
| 2026-05-04 18:12 | 41.32474 | -94.78065 | 39661 ft | 429 kts | 267° |
| 2026-05-04 18:13 | 41.31953 | -94.85971 | 39660 ft | 429 kts | 267° |
| 2026-05-04 18:14 | 41.31162 | -94.97814 | 39668 ft | 429 kts | 267° |
| 2026-05-04 18:14 | 41.30628 | -95.05711 | 39673 ft | 428 kts | 267° |
| 2026-05-04 18:15 | 41.29544 | -95.21489 | 39668 ft | 428 kts | 267° |
| 2026-05-04 18:16 | 41.28996 | -95.29363 | 39665 ft | 428 kts | 267° |
| 2026-05-04 18:16 | 41.28440 | -95.37252 | 39658 ft | 428 kts | 267° |
| 2026-05-04 18:17 | 41.27598 | -95.49059 | 39660 ft | 428 kts | 266° |
| 2026-05-04 18:18 | 41.26744 | -95.60873 | 39655 ft | 428 kts | 266° |
| 2026-05-04 18:18 | 41.26168 | -95.68737 | 39682 ft | 428 kts | 266° |
| 2026-05-04 18:19 | 41.25295 | -95.80523 | 39683 ft | 427 kts | 266° |
| 2026-05-04 18:19 | 41.24707 | -95.88372 | 39683 ft | 427 kts | 266° |
| 2026-05-04 18:20 | 41.24113 | -95.96227 | 39682 ft | 427 kts | 266° |
| 2026-05-04 18:20 | 41.23518 | -96.04026 | 39693 ft | 427 kts | 266° |
| 2026-05-04 18:21 | 41.22910 | -96.11922 | 39689 ft | 427 kts | 266° |
| 2026-05-04 18:21 | 41.22305 | -96.19711 | 39691 ft | 426 kts | 266° |
| 2026-05-04 18:22 | 41.21687 | -96.27590 | 39688 ft | 426 kts | 266° |
| 2026-05-04 18:22 | 41.21069 | -96.35414 | 39680 ft | 426 kts | 266° |
| 2026-05-04 18:23 | 41.20450 | -96.43174 | 39673 ft | 426 kts | 266° |
| 2026-05-04 18:23 | 41.19820 | -96.50997 | 39683 ft | 425 kts | 266° |
| 2026-05-04 18:24 | 41.19183 | -96.58846 | 39701 ft | 424 kts | 266° |
| 2026-05-04 18:24 | 41.18551 | -96.66571 | 39702 ft | 424 kts | 266° |
| 2026-05-04 18:25 | 41.17908 | -96.74358 | 39699 ft | 424 kts | 266° |
| 2026-05-04 18:25 | 41.17263 | -96.82120 | 39693 ft | 424 kts | 266° |
| 2026-05-04 18:26 | 41.16605 | -96.89956 | 39691 ft | 423 kts | 266° |
| 2026-05-04 18:26 | 41.15950 | -96.97697 | 39687 ft | 422 kts | 266° |
| 2026-05-04 18:27 | 41.15290 | -97.05443 | 39689 ft | 422 kts | 266° |
| 2026-05-04 18:27 | 41.14625 | -97.13179 | 39694 ft | 422 kts | 266° |
| 2026-05-04 18:28 | 41.13954 | -97.20912 | 39705 ft | 422 kts | 266° |
| 2026-05-04 18:28 | 41.13282 | -97.28610 | 39706 ft | 422 kts | 266° |
| 2026-05-04 18:29 | 41.12596 | -97.36399 | 39707 ft | 422 kts | 266° |
| 2026-05-04 18:29 | 41.11915 | -97.44075 | 39704 ft | 422 kts | 266° |
| 2026-05-04 18:30 | 41.10877 | -97.55670 | 39711 ft | 422 kts | 266° |
| 2026-05-04 18:31 | 41.10177 | -97.63409 | 39711 ft | 421 kts | 266° |
| 2026-05-04 18:31 | 41.09475 | -97.71104 | 39712 ft | 420 kts | 266° |
| 2026-05-04 18:32 | 41.08770 | -97.78794 | 39712 ft | 420 kts | 266° |
| 2026-05-04 18:32 | 41.08059 | -97.86477 | 39724 ft | 420 kts | 266° |
| 2026-05-04 18:33 | 41.07343 | -97.94159 | 39720 ft | 420 kts | 266° |
| 2026-05-04 18:33 | 41.06625 | -98.01810 | 39719 ft | 417 kts | 266° |
| 2026-05-04 18:34 | 41.05905 | -98.09422 | 39725 ft | 416 kts | 266° |
| 2026-05-04 18:34 | 41.05182 | -98.17021 | 39734 ft | 416 kts | 265° |
| 2026-05-04 18:35 | 41.04451 | -98.24642 | 39751 ft | 416 kts | 265° |
| 2026-05-04 18:35 | 41.03717 | -98.32240 | 39751 ft | 416 kts | 265° |
| 2026-05-04 18:36 | 41.02978 | -98.39848 | 39736 ft | 415 kts | 265° |
| 2026-05-04 18:36 | 41.02236 | -98.47420 | 39713 ft | 415 kts | 265° |
| 2026-05-04 18:37 | 41.01489 | -98.54994 | 39714 ft | 415 kts | 265° |
| 2026-05-04 18:37 | 41.00738 | -98.62561 | 39713 ft | 415 kts | 265° |
| 2026-05-04 18:38 | 40.99981 | -98.70130 | 39713 ft | 415 kts | 265° |
| 2026-05-04 18:38 | 40.99220 | -98.77698 | 39709 ft | 414 kts | 265° |
| 2026-05-04 18:39 | 40.98455 | -98.85239 | 39702 ft | 414 kts | 265° |
| 2026-05-04 18:39 | 40.97686 | -98.92780 | 39713 ft | 413 kts | 265° |
| 2026-05-04 18:40 | 40.96912 | -99.00318 | 39706 ft | 413 kts | 265° |
| 2026-05-04 18:40 | 40.96134 | -99.07856 | 39718 ft | 413 kts | 265° |
| 2026-05-04 18:41 | 40.95351 | -99.15382 | 39709 ft | 411 kts | 265° |
| 2026-05-04 18:41 | 40.94567 | -99.22864 | 39710 ft | 410 kts | 265° |
| 2026-05-04 18:42 | 40.93781 | -99.30329 | 39711 ft | 410 kts | 265° |
| 2026-05-04 18:42 | 40.92990 | -99.37792 | 39716 ft | 410 kts | 265° |
| 2026-05-04 18:43 | 40.92193 | -99.45262 | 39730 ft | 410 kts | 265° |
| 2026-05-04 18:43 | 40.91392 | -99.52721 | 39741 ft | 409 kts | 265° |
| 2026-05-04 18:44 | 40.90587 | -99.60168 | 39752 ft | 409 kts | 265° |
| 2026-05-04 18:44 | 40.89777 | -99.67614 | 39767 ft | 409 kts | 265° |
| 2026-05-04 18:45 | 40.88963 | -99.75056 | 39774 ft | 409 kts | 265° |
| 2026-05-04 18:45 | 40.88145 | -99.82495 | 39773 ft | 409 kts | 265° |
| 2026-05-04 18:46 | 40.87322 | -99.89921 | 39767 ft | 407 kts | 265° |
| 2026-05-04 18:46 | 40.86500 | -99.97302 | 39754 ft | 406 kts | 265° |
| 2026-05-04 18:47 | 40.85675 | -100.04666 | 39739 ft | 406 kts | 265° |
| 2026-05-04 18:47 | 40.84844 | -100.12043 | 39740 ft | 406 kts | 264° |
| 2026-05-04 18:48 | 40.84008 | -100.19414 | 39726 ft | 406 kts | 264° |
| 2026-05-04 18:48 | 40.83202 | -100.26478 | 39704 ft | 403 kts | 264° |
| 2026-05-04 18:49 | 40.82364 | -100.33788 | 39699 ft | 402 kts | 264° |
| 2026-05-04 18:49 | 40.81524 | -100.41072 | 39703 ft | 401 kts | 264° |
| 2026-05-04 18:50 | 40.80680 | -100.48349 | 39704 ft | 401 kts | 264° |
| 2026-05-04 18:50 | 40.79983 | -100.54322 | 39706 ft | 401 kts | 264° |
| 2026-05-04 18:51 | 40.79164 | -100.61320 | 39707 ft | 401 kts | 264° |
| 2026-05-04 18:51 | 40.78276 | -100.68554 | 39709 ft | 400 kts | 262° |
| 2026-05-04 18:52 | 40.77017 | -100.75714 | 39704 ft | 401 kts | 261° |
| 2026-05-04 18:52 | 40.75765 | -100.82873 | 39703 ft | 400 kts | 261° |
| 2026-05-04 18:53 | 40.74534 | -100.90031 | 39708 ft | 400 kts | 261° |
| 2026-05-04 18:53 | 40.73306 | -100.97190 | 39698 ft | 400 kts | 261° |
| 2026-05-04 18:54 | 40.72075 | -101.04351 | 39701 ft | 400 kts | 261° |
| 2026-05-04 18:54 | 40.70841 | -101.11502 | 39702 ft | 400 kts | 261° |
| 2026-05-04 18:55 | 40.69605 | -101.18653 | 39703 ft | 400 kts | 261° |
| 2026-05-04 18:55 | 40.67723 | -101.29357 | 39725 ft | 400 kts | 261° |
| 2026-05-04 18:56 | 40.66465 | -101.36503 | 39739 ft | 399 kts | 261° |
| 2026-05-04 18:56 | 40.65210 | -101.43605 | 39755 ft | 398 kts | 261° |
| 2026-05-04 18:57 | 40.63952 | -101.50703 | 39771 ft | 398 kts | 261° |
| 2026-05-04 18:57 | 40.62689 | -101.57799 | 39784 ft | 398 kts | 260° |
| 2026-05-04 18:58 | 40.61421 | -101.64893 | 39789 ft | 398 kts | 260° |
| 2026-05-04 18:58 | 40.60151 | -101.71980 | 39783 ft | 397 kts | 260° |
| 2026-05-04 18:59 | 40.58887 | -101.79001 | 39774 ft | 397 kts | 260° |
| 2026-05-04 18:59 | 40.57603 | -101.86107 | 39759 ft | 397 kts | 260° |
| 2026-05-04 19:00 | 40.56331 | -101.93118 | 39744 ft | 396 kts | 260° |
| 2026-05-04 19:00 | 40.55049 | -102.00169 | 39723 ft | 396 kts | 260° |
| 2026-05-04 19:01 | 40.53735 | -102.07260 | 39702 ft | 396 kts | 260° |
| 2026-05-04 19:01 | 40.52425 | -102.14300 | 39706 ft | 396 kts | 260° |
| 2026-05-04 19:02 | 40.51770 | -102.17815 | 39584 ft | 394 kts | 260° |
| 2026-05-04 19:02 | 40.51122 | -102.21280 | 39144 ft | 389 kts | 260° |
| 2026-05-04 19:02 | 40.50478 | -102.24722 | 38660 ft | 385 kts | 260° |
| 2026-05-04 19:02 | 40.49840 | -102.28127 | 38088 ft | 382 kts | 260° |
| 2026-05-04 19:03 | 40.49205 | -102.31517 | 37265 ft | 384 kts | 260° |
| 2026-05-04 19:03 | 40.48563 | -102.34946 | 36228 ft | 391 kts | 259° |
| 2026-05-04 19:03 | 40.47908 | -102.38441 | 35133 ft | 399 kts | 259° |
| 2026-05-04 19:03 | 40.47232 | -102.42037 | 34056 ft | 408 kts | 259° |
| 2026-05-04 19:04 | 40.46545 | -102.45677 | 33041 ft | 413 kts | 259° |
| 2026-05-04 19:04 | 40.45847 | -102.49370 | 31857 ft | 421 kts | 258° |
| 2026-05-04 19:04 | 40.45144 | -102.53080 | 30864 ft | 426 kts | 258° |
| 2026-05-04 19:04 | 40.44420 | -102.56880 | 30397 ft | 419 kts | 257° |
| 2026-05-04 19:05 | 40.43719 | -102.60552 | 30056 ft | 410 kts | 257° |
| 2026-05-04 19:05 | 40.43034 | -102.64140 | 29684 ft | 402 kts | 257° |
| 2026-05-04 19:05 | 40.42358 | -102.67682 | 29148 ft | 397 kts | 257° |
| 2026-05-04 19:05 | 40.41688 | -102.71177 | 28597 ft | 393 kts | 257° |
| 2026-05-04 19:06 | 40.41020 | -102.74636 | 28065 ft | 390 kts | 257° |
| 2026-05-04 19:06 | 40.40356 | -102.78066 | 27478 ft | 387 kts | 257° |
| 2026-05-04 19:06 | 40.39695 | -102.81482 | 26891 ft | 385 kts | 257° |
| 2026-05-04 19:06 | 40.39038 | -102.84872 | 26351 ft | 382 kts | 257° |
| 2026-05-04 19:07 | 40.38384 | -102.88241 | 25832 ft | 380 kts | 257° |
| 2026-05-04 19:07 | 40.37735 | -102.91581 | 25302 ft | 377 kts | 257° |
| 2026-05-04 19:07 | 40.37088 | -102.94908 | 24796 ft | 375 kts | 257° |
| 2026-05-04 19:07 | 40.36444 | -102.98215 | 24274 ft | 373 kts | 257° |
| 2026-05-04 19:08 | 40.35803 | -103.01497 | 23759 ft | 371 kts | 257° |
| 2026-05-04 19:08 | 40.35170 | -103.04767 | 23244 ft | 369 kts | 257° |
| 2026-05-04 19:08 | 40.34540 | -103.08007 | 22651 ft | 367 kts | 257° |
| 2026-05-04 19:08 | 40.33910 | -103.11241 | 22084 ft | 364 kts | 257° |
| 2026-05-04 19:09 | 40.33286 | -103.14444 | 21598 ft | 362 kts | 257° |
| 2026-05-04 19:09 | 40.32663 | -103.17634 | 21021 ft | 360 kts | 257° |
| 2026-05-04 19:09 | 40.32044 | -103.20794 | 20467 ft | 358 kts | 257° |
| 2026-05-04 19:09 | 40.31425 | -103.23951 | 19938 ft | 356 kts | 257° |
| 2026-05-04 19:10 | 40.30811 | -103.27080 | 19421 ft | 354 kts | 257° |
| 2026-05-04 19:10 | 40.30202 | -103.30191 | 18880 ft | 352 kts | 256° |
| 2026-05-04 19:10 | 40.29595 | -103.33240 | 18371 ft | 350 kts | 256° |
| 2026-05-04 19:10 | 40.28981 | -103.36312 | 17822 ft | 348 kts | 256° |
| 2026-05-04 19:11 | 40.28360 | -103.39412 | 17253 ft | 346 kts | 256° |
| 2026-05-04 19:11 | 40.27760 | -103.42412 | 16683 ft | 344 kts | 256° |
| 2026-05-04 19:11 | 40.27156 | -103.45428 | 16123 ft | 342 kts | 257° |
| 2026-05-04 19:11 | 40.26554 | -103.48432 | 15576 ft | 340 kts | 257° |
| 2026-05-04 19:12 | 40.25955 | -103.51416 | 15038 ft | 338 kts | 257° |
| 2026-05-04 19:12 | 40.24763 | -103.57351 | 14760 ft | 338 kts | 257° |
| 2026-05-04 19:12 | 40.24176 | -103.60328 | 14767 ft | 338 kts | 257° |
| 2026-05-04 19:13 | 40.23588 | -103.63304 | 14765 ft | 338 kts | 257° |
| 2026-05-04 19:13 | 40.22997 | -103.66282 | 14772 ft | 337 kts | 257° |
| 2026-05-04 19:13 | 40.22408 | -103.69249 | 14774 ft | 337 kts | 257° |
| 2026-05-04 19:13 | 40.21818 | -103.72221 | 14777 ft | 337 kts | 257° |
| 2026-05-04 19:14 | 40.21229 | -103.75187 | 14778 ft | 334 kts | 257° |
| 2026-05-04 19:14 | 40.20659 | -103.78048 | 14708 ft | 318 kts | 257° |
| 2026-05-04 19:14 | 40.20108 | -103.80801 | 14506 ft | 307 kts | 257° |
| 2026-05-04 19:14 | 40.19574 | -103.83469 | 14196 ft | 301 kts | 257° |
| 2026-05-04 19:15 | 40.19045 | -103.86111 | 13789 ft | 299 kts | 257° |
| 2026-05-04 19:15 | 40.18517 | -103.88750 | 13291 ft | 300 kts | 257° |
| 2026-05-04 19:15 | 40.17826 | -103.91321 | 12808 ft | 300 kts | 245° |
| 2026-05-04 19:15 | 40.16804 | -103.93696 | 12363 ft | 299 kts | 240° |
| 2026-05-04 19:16 | 40.15711 | -103.96005 | 11907 ft | 298 kts | 240° |
| 2026-05-04 19:16 | 40.14621 | -103.98291 | 11450 ft | 296 kts | 240° |
| 2026-05-04 19:16 | 40.13537 | -104.00573 | 11032 ft | 295 kts | 240° |
| 2026-05-04 19:16 | 40.12461 | -104.02840 | 10598 ft | 293 kts | 240° |
| 2026-05-04 19:17 | 40.11388 | -104.05104 | 10176 ft | 292 kts | 240° |
| 2026-05-04 19:17 | 40.10324 | -104.07353 | 9755 ft | 290 kts | 240° |
| 2026-05-04 19:17 | 40.09269 | -104.09588 | 9337 ft | 288 kts | 240° |
| 2026-05-04 19:17 | 40.08221 | -104.11804 | 8881 ft | 287 kts | 240° |
| 2026-05-04 19:18 | 40.07171 | -104.14016 | 8458 ft | 285 kts | 240° |
| 2026-05-04 19:18 | 40.06128 | -104.16208 | 8004 ft | 284 kts | 240° |
| 2026-05-04 19:18 | 40.05089 | -104.18392 | 7547 ft | 283 kts | 239° |
| 2026-05-04 19:18 | 40.04053 | -104.20567 | 7169 ft | 281 kts | 240° |
| 2026-05-04 19:19 | 40.03025 | -104.22728 | 6823 ft | 279 kts | 239° |
| 2026-05-04 19:19 | 40.02018 | -104.24841 | 6569 ft | 273 kts | 239° |
| 2026-05-04 19:19 | 40.01018 | -104.26934 | 6230 ft | 271 kts | 240° |
| 2026-05-04 19:19 | 40.00025 | -104.29015 | 5871 ft | 269 kts | 239° |
| 2026-05-04 19:20 | 39.99037 | -104.31088 | 5324 ft | 271 kts | 239° |
| 2026-05-04 19:20 | 39.98053 | -104.33140 | 5168 ft | 257 kts | 240° |
| 2026-05-04 19:20 | 39.97140 | -104.35040 | 5216 ft | 238 kts | 240° |
| 2026-05-04 19:20 | 39.96299 | -104.36790 | 5192 ft | 225 kts | 240° |
| 2026-05-04 19:21 | 39.95487 | -104.38479 | 5148 ft | 212 kts | 240° |
| 2026-05-04 19:21 | 39.94727 | -104.40064 | 5146 ft | 201 kts | 240° |
| 2026-05-04 19:21 | 39.94010 | -104.41555 | 5197 ft | 172 kts | 235° |
| 2026-05-04 19:21 | 39.93419 | -104.42737 | 5168 ft | 136 kts | 240° |
| 2026-05-04 19:22 | 39.92751 | -104.43586 | 5190 ft | 158 kts | 225° |
| 2026-05-04 19:22 | 39.92009 | -104.44973 | 5207 ft | 217 kts | 244° |
| 2026-05-04 19:22 | 39.91211 | -104.44353 | 6473 ft | 123 kts | 190° |